Time;durP1;ratioP1;P1;durP2;ratioP2;P2;SDS_P1;SDS_P2;PMS_P1;PMS_P2;Temp;Humidity;BMP_temperature;BMP_pressure;BME280_temperature;BME280_humidity;BME280_pressure;Samples;Min_cycle;Max_cycle;Signal;HPM_P1;HPM_P2
2023/07/24 00:00:25;;;;;;;438.02;408.15;;;16.50;78.30;;;;;;4959174;28;20057;-90
2023/07/24 00:02:50;;;;;;;410.45;384.38;;;16.50;78.40;;;;;;4976687;28;20500;-90
2023/07/24 00:05:19;;;;;;;436.75;407.38;;;16.50;78.50;;;;;;4975510;28;20089;-89
2023/07/24 00:07:48;;;;;;;401.65;375.05;;;16.40;78.50;;;;;;4943423;28;20050;-88
2023/07/24 00:10:16;;;;;;;410.95;385.17;;;16.40;78.60;;;;;;4948419;28;20050;-89
2023/07/24 00:12:44;;;;;;;406.80;380.33;;;16.50;78.60;;;;;;4956512;28;20070;-90
2023/07/24 00:15:10;;;;;;;416.02;387.67;;;16.50;78.50;;;;;;4975274;28;20080;-89
2023/07/24 00:17:39;;;;;;;405.25;379.08;;;16.50;78.60;;;;;;4963665;28;20114;-89
2023/07/24 00:20:08;;;;;;;415.08;388.80;;;16.50;78.60;;;;;;4940066;28;20082;-90
2023/07/24 00:22:36;;;;;;;427.90;400.52;;;16.50;78.60;;;;;;4927081;28;20059;-89
2023/07/24 00:25:02;;;;;;;461.70;429.58;;;16.50;78.70;;;;;;4957416;28;20046;-90
2023/07/24 00:27:31;;;;;;;438.17;408.30;;;16.50;78.70;;;;;;4933305;28;20555;-89
2023/07/24 00:29:59;;;;;;;434.25;405.38;;;16.60;78.60;;;;;;4926409;28;20560;-89
2023/07/24 00:32:28;;;;;;;433.70;403.83;;;16.60;78.70;;;;;;4925584;28;20054;-90
2023/07/24 00:34:53;;;;;;;435.23;406.05;;;16.60;78.80;;;;;;4953201;28;20144;-89
2023/07/24 00:37:22;;;;;;;440.20;410.80;;;16.60;78.80;;;;;;4956706;28;20047;-89
2023/07/24 00:39:50;;;;;;;449.40;416.55;;;16.60;78.90;;;;;;4961294;28;20098;-89
2023/07/24 00:42:19;;;;;;;445.50;414.67;;;16.60;78.90;;;;;;4922705;28;20043;-89
2023/07/24 00:44:45;;;;;;;423.55;395.95;;;16.60;78.80;;;;;;4955376;28;20043;-89
2023/07/24 00:47:13;;;;;;;440.27;410.48;;;16.60;78.90;;;;;;4949965;28;20046;-91
2023/07/24 00:49:42;;;;;;;483.60;449.27;;;16.60;78.90;;;;;;4924929;28;20038;-89
2023/07/24 00:52:08;;;;;;;425.25;398.00;;;16.60;79.00;;;;;;4952476;28;20085;-90
2023/07/24 00:54:34;;;;;;;473.33;438.25;;;16.50;79.20;;;;;;4925644;28;20678;-89
2023/07/24 00:57:01;;;;;;;469.52;437.83;;;16.50;79.30;;;;;;4916061;29;20102;-90
2023/07/24 00:59:27;;;;;;;466.33;434.20;;;16.50;79.30;;;;;;4937008;28;20042;-89
2023/07/24 01:01:53;;;;;;;515.78;477.15;;;16.50;79.60;;;;;;4921844;28;20055;-91
2023/07/24 01:04:19;;;;;;;460.40;429.75;;;16.50;79.70;;;;;;4939017;28;20104;-90
2023/07/24 01:06:45;;;;;;;469.42;437.88;;;16.50;79.80;;;;;;4937687;28;20312;-90
2023/07/24 01:09:13;;;;;;;488.00;452.20;;;16.50;79.80;;;;;;4930153;28;20039;-89
2023/07/24 01:11:55;;;;;;;470.27;438.05;;;16.50;80.10;;;;;;4930809;28;20134;-91
2023/07/24 01:14:35;;;;;;;;;;;16.50;80.40;;;;;;4950957;28;20050;-89
2023/07/24 01:17:03;;;;;;;242.90;227.82;;;16.50;80.80;;;;;;4935953;28;19954;-89
2023/07/24 01:19:57;;;;;;;284.50;265.90;;;16.40;80.20;;;;;;4967704;28;20614;-89
2023/07/24 01:22:39;;;;;;;302.30;282.55;;;16.40;80.30;;;;;;4964826;28;20131;-89
2023/07/24 01:25:46;;;;;;;283.00;264.60;;;16.40;80.50;;;;;;4977053;28;20049;-88
2023/07/24 01:28:14;;;;;;;281.60;263.45;;;16.40;80.40;;;;;;4958027;28;20727;-89
2023/07/24 01:30:42;;;;;;;288.27;269.13;;;16.40;80.50;;;;;;4975891;28;20039;-88
2023/07/24 01:33:13;;;;;;;322.90;301.38;;;16.30;80.50;;;;;;4956346;28;20412;-89
2023/07/24 01:35:43;;;;;;;295.77;276.63;;;16.20;80.60;;;;;;4999380;28;20136;-88
2023/07/24 01:38:13;;;;;;;286.25;267.70;;;16.20;80.70;;;;;;4971728;28;20398;-89
2023/07/24 01:40:45;;;;;;;320.15;298.23;;;16.10;80.70;;;;;;4991231;28;20050;-89
2023/07/24 01:43:11;;;;;;;322.95;301.63;;;16.10;80.80;;;;;;4951639;28;20469;-88
2023/07/24 01:45:37;;;;;;;287.15;268.90;;;16.10;80.90;;;;;;4988260;28;20069;-88
2023/07/24 01:48:06;;;;;;;301.50;281.90;;;16.10;80.90;;;;;;4930123;28;20077;-88
2023/07/24 01:50:32;;;;;;;282.10;264.17;;;16.00;80.80;;;;;;4990944;28;20488;-88
2023/07/24 01:52:58;;;;;;;279.95;261.35;;;16.00;81.00;;;;;;4972931;28;20077;-88
2023/07/24 01:55:24;;;;;;;295.65;276.20;;;16.00;81.10;;;;;;4961270;28;20406;-88
2023/07/24 01:57:50;;;;;;;295.25;276.05;;;16.00;81.10;;;;;;4952057;28;20133;-89
2023/07/24 02:00:18;;;;;;;307.00;286.98;;;16.00;81.10;;;;;;4971864;28;20452;-88
2023/07/24 02:02:44;;;;;;;288.48;269.23;;;16.00;81.20;;;;;;4973913;28;20054;-89
2023/07/24 02:05:12;;;;;;;300.52;280.90;;;16.00;81.30;;;;;;4958908;28;20050;-88
2023/07/24 02:07:41;;;;;;;289.90;270.98;;;16.00;81.30;;;;;;4948194;28;20066;-89
2023/07/24 02:10:09;;;;;;;288.27;268.98;;;16.00;81.20;;;;;;4990846;28;20610;-88
2023/07/24 02:12:37;;;;;;;276.52;257.83;;;15.90;81.20;;;;;;4974070;28;20378;-88
2023/07/24 02:15:06;;;;;;;285.48;266.98;;;15.80;81.30;;;;;;4973486;28;20316;-89
2023/07/24 02:17:32;;;;;;;286.38;268.27;;;15.80;81.40;;;;;;4939272;28;20042;-88
2023/07/24 02:19:58;;;;;;;278.58;260.60;;;15.80;81.40;;;;;;4956119;28;20051;-89
2023/07/24 02:22:24;;;;;;;270.88;252.90;;;15.70;81.50;;;;;;4939898;28;20054;-89
2023/07/24 02:24:50;;;;;;;273.05;255.55;;;15.70;81.60;;;;;;4942658;28;20085;-89
2023/07/24 02:27:27;;;;;;;556.67;519.33;;;15.60;81.70;;;;;;4940930;28;20078;-89
2023/07/24 02:29:53;;;;;;;285.17;265.85;;;15.60;81.80;;;;;;4960825;28;20065;-88
2023/07/24 02:32:21;;;;;;;563.35;525.67;;;15.60;81.90;;;;;;4930264;28;20054;-88
2023/07/24 02:34:47;;;;;;;289.70;269.55;;;15.60;82.00;;;;;;4948829;28;20078;-89
2023/07/24 02:37:13;;;;;;;280.15;261.95;;;15.60;82.00;;;;;;4940152;28;20073;-89
2023/07/24 02:39:39;;;;;;;551.60;514.58;;;15.60;82.00;;;;;;4955807;28;20046;-88
2023/07/24 02:42:04;;;;;;;290.00;270.52;;;15.60;82.20;;;;;;4954327;28;20051;-89
2023/07/24 02:44:32;;;;;;;291.88;272.23;;;15.60;82.10;;;;;;4958867;28;20141;-89
2023/07/24 02:46:58;;;;;;;549.15;512.70;;;15.60;82.20;;;;;;4936049;28;20062;-89
2023/07/24 02:49:23;;;;;;;310.52;289.20;;;15.60;82.30;;;;;;4950396;28;20166;-88
2023/07/24 02:51:52;;;;;;;295.58;275.52;;;15.60;82.40;;;;;;4949541;28;20045;-88
2023/07/24 02:54:20;;;;;;;287.65;267.90;;;15.60;82.40;;;;;;4973885;28;20097;-88
2023/07/24 02:56:48;;;;;;;559.05;520.90;;;15.60;82.50;;;;;;4918118;28;20793;-89
2023/07/24 02:59:14;;;;;;;312.35;290.73;;;15.60;82.50;;;;;;4944527;28;20062;-88
2023/07/24 03:01:43;;;;;;;287.30;267.73;;;15.60;82.50;;;;;;4960819;28;20054;-90
2023/07/24 03:04:12;;;;;;;283.98;264.48;;;15.70;82.60;;;;;;4929281;28;20130;-88
2023/07/24 03:06:40;;;;;;;284.60;265.77;;;15.70;82.80;;;;;;4951020;28;20042;-88
2023/07/24 03:09:06;;;;;;;326.05;303.85;;;15.80;82.80;;;;;;4917457;28;20061;-88
2023/07/24 03:11:35;;;;;;;289.63;270.48;;;15.80;82.90;;;;;;4944674;28;20042;-88
2023/07/24 03:14:03;;;;;;;316.80;295.00;;;15.80;82.80;;;;;;4956748;28;20042;-88
2023/07/24 03:16:32;;;;;;;531.95;495.50;;;15.80;82.80;;;;;;4954179;28;20113;-89
2023/07/24 03:18:58;;;;;;;322.05;300.15;;;15.80;82.90;;;;;;4924944;28;20126;-88
2023/07/24 03:21:26;;;;;;;331.20;308.35;;;15.80;83.00;;;;;;4952789;28;20088;-89
2023/07/24 03:23:55;;;;;;;517.80;482.08;;;15.80;82.90;;;;;;4954032;28;20533;-89
2023/07/24 03:26:23;;;;;;;515.53;480.77;;;15.90;82.90;;;;;;4955346;28;20084;-89
2023/07/24 03:28:49;;;;;;;469.00;437.58;;;15.90;82.90;;;;;;4944459;28;20457;-89
2023/07/24 03:31:17;;;;;;;491.17;457.95;;;15.90;82.90;;;;;;4957874;28;20125;-89
2023/07/24 03:33:46;;;;;;;507.50;473.02;;;16.00;82.90;;;;;;4957081;28;20050;-89
2023/07/24 03:36:15;;;;;;;485.80;452.25;;;16.00;82.90;;;;;;4977966;28;20038;-89
2023/07/24 03:38:43;;;;;;;460.95;429.17;;;16.00;82.80;;;;;;4962082;28;20047;-89
2023/07/24 03:41:09;;;;;;;448.95;419.25;;;16.00;82.80;;;;;;4960124;28;20396;-89
2023/07/24 03:43:37;;;;;;;461.83;431.08;;;16.00;82.90;;;;;;4956723;28;20046;-89
2023/07/24 03:46:06;;;;;;;433.88;405.10;;;16.00;82.90;;;;;;4942669;28;20046;-88
2023/07/24 03:48:34;;;;;;;478.80;445.95;;;16.00;82.90;;;;;;4934222;28;20138;-89
2023/07/24 03:51:01;;;;;;;515.90;480.15;;;16.00;82.70;;;;;;4941087;28;20493;-89
2023/07/24 03:53:27;;;;;;;310.13;289.95;;;16.00;82.80;;;;;;4963196;28;20051;-89
2023/07/24 03:55:53;;;;;;;318.80;297.50;;;16.00;82.70;;;;;;4946777;28;20051;-89
2023/07/24 03:58:19;;;;;;;324.85;302.80;;;16.00;82.70;;;;;;4919468;28;20105;-88
2023/07/24 04:00:45;;;;;;;316.83;294.75;;;16.00;82.60;;;;;;4938741;28;20101;-89
2023/07/24 04:03:12;;;;;;;529.08;493.35;;;16.00;82.60;;;;;;4930595;28;20120;-89
2023/07/24 04:05:37;;;;;;;504.25;470.45;;;16.10;82.60;;;;;;4956975;28;20054;-90
2023/07/24 04:08:06;;;;;;;476.23;444.70;;;16.00;82.50;;;;;;4956629;28;20042;-89
2023/07/24 04:10:32;;;;;;;453.42;423.27;;;16.10;82.50;;;;;;4961028;28;20050;-90
2023/07/24 04:13:00;;;;;;;476.13;444.98;;;16.10;82.50;;;;;;4960135;28;20551;-90
2023/07/24 04:15:28;;;;;;;301.15;281.38;;;16.10;82.50;;;;;;4980446;28;20052;-89
2023/07/24 04:17:57;;;;;;;461.23;430.20;;;16.10;82.60;;;;;;4960572;28;20707;-89
2023/07/24 04:20:25;;;;;;;278.30;259.80;;;16.10;82.50;;;;;;4958680;28;20081;-90
2023/07/24 04:22:51;;;;;;;308.40;288.08;;;16.10;82.50;;;;;;4964772;28;20067;-90
2023/07/24 04:25:20;;;;;;;437.02;408.63;;;16.10;82.50;;;;;;4939798;28;20070;-89
2023/07/24 04:27:48;;;;;;;458.58;428.15;;;16.10;82.60;;;;;;4924225;28;20053;-89
2023/07/24 04:30:16;;;;;;;430.38;402.02;;;16.10;82.50;;;;;;4945299;28;20046;-89
2023/07/24 04:32:45;;;;;;;424.77;396.83;;;16.10;82.60;;;;;;4938683;28;20042;-89
2023/07/24 04:35:11;;;;;;;316.98;295.08;;;16.10;82.50;;;;;;4959145;28;20053;-89
2023/07/24 04:37:40;;;;;;;428.30;400.67;;;16.20;82.50;;;;;;4953821;28;20104;-90
2023/07/24 04:40:09;;;;;;;392.35;367.33;;;16.10;82.50;;;;;;4958151;28;20453;-89
2023/07/24 04:42:35;;;;;;;398.05;372.02;;;16.20;82.50;;;;;;4928575;28;20165;-89
2023/07/24 04:45:03;;;;;;;412.92;386.60;;;16.10;82.50;;;;;;4969107;28;20050;-89
2023/07/24 04:47:32;;;;;;;385.77;361.08;;;16.20;82.50;;;;;;4953122;28;20046;-88
2023/07/24 04:50:00;;;;;;;415.52;388.65;;;16.20;82.50;;;;;;4942374;28;20049;-88
2023/07/24 04:52:29;;;;;;;407.40;380.75;;;16.20;82.50;;;;;;4941991;28;20061;-89
2023/07/24 04:54:54;;;;;;;315.35;294.48;;;16.20;82.50;;;;;;4941044;28;20046;-89
2023/07/24 04:57:23;;;;;;;390.73;365.67;;;16.20;82.40;;;;;;4964558;28;20097;-90
2023/07/24 04:59:52;;;;;;;398.73;372.50;;;16.20;82.60;;;;;;4957079;28;20096;-90
2023/07/24 05:02:20;;;;;;;407.48;381.00;;;16.20;82.50;;;;;;4969237;28;20056;-89
2023/07/24 05:04:46;;;;;;;389.65;363.98;;;16.30;82.60;;;;;;4942400;28;20050;-89
2023/07/24 05:07:14;;;;;;;412.23;385.35;;;16.30;82.50;;;;;;4945909;28;20058;-89
2023/07/24 05:09:42;;;;;;;402.65;375.63;;;16.30;82.50;;;;;;4959154;28;20045;-89
2023/07/24 05:12:09;;;;;;;397.50;371.45;;;16.30;82.50;;;;;;4952769;28;20046;-89
2023/07/24 05:14:38;;;;;;;379.58;355.80;;;16.40;82.50;;;;;;4941713;28;20515;-89
2023/07/24 05:17:06;;;;;;;396.00;368.98;;;16.40;82.50;;;;;;4925236;28;20042;-89
2023/07/24 05:19:32;;;;;;;398.88;371.83;;;16.40;82.60;;;;;;4941577;28;20089;-89
2023/07/24 05:21:59;;;;;;;390.95;365.15;;;16.40;82.50;;;;;;4958773;28;20047;-89
2023/07/24 05:24:25;;;;;;;370.95;344.58;;;16.40;82.60;;;;;;4979702;28;20046;-87
2023/07/24 05:26:50;;;;;;;413.83;386.73;;;16.40;82.60;;;;;;4945233;28;20072;-86
2023/07/24 05:29:16;;;;;;;411.10;383.60;;;16.40;82.50;;;;;;4955150;28;20077;-87
2023/07/24 05:31:42;;;;;;;400.98;374.33;;;16.40;82.60;;;;;;4973418;28;20050;-87
2023/07/24 05:34:10;;;;;;;404.10;378.20;;;16.40;82.60;;;;;;4968977;28;20055;-88
2023/07/24 05:36:40;;;;;;;407.60;380.88;;;16.40;82.60;;;;;;4961995;28;20042;-87
2023/07/24 05:39:06;;;;;;;422.38;394.30;;;16.40;82.60;;;;;;4975673;28;20050;-87
2023/07/24 05:41:34;;;;;;;417.80;390.13;;;16.40;82.60;;;;;;4957903;28;20125;-87
2023/07/24 05:44:00;;;;;;;420.92;392.50;;;16.50;82.60;;;;;;4945918;28;20098;-87
2023/07/24 05:46:29;;;;;;;403.73;377.38;;;16.40;82.60;;;;;;4956401;28;20035;-88
2023/07/24 05:49:00;;;;;;;408.23;381.73;;;16.40;82.60;;;;;;4950216;28;20054;-87
2023/07/24 05:51:25;;;;;;;398.63;372.57;;;16.50;82.60;;;;;;4962872;28;20042;-87
2023/07/24 05:53:54;;;;;;;441.95;412.42;;;16.40;82.60;;;;;;4957686;28;20056;-87
2023/07/24 05:56:28;;;;;;;374.65;347.20;;;16.50;82.60;;;;;;4965527;28;20043;-89
2023/07/24 05:58:54;;;;;;;422.80;395.17;;;16.50;82.60;;;;;;4942615;28;20534;-87
2023/07/24 06:01:20;;;;;;;441.80;412.33;;;16.40;82.70;;;;;;4975511;28;20042;-87
2023/07/24 06:03:46;;;;;;;434.95;406.10;;;16.50;82.80;;;;;;4975054;28;20053;-87
2023/07/24 06:06:12;;;;;;;379.85;352.83;;;16.40;82.70;;;;;;4959081;28;20530;-90
2023/07/24 06:08:40;;;;;;;482.88;450.00;;;16.40;82.70;;;;;;4973799;28;20098;-89
2023/07/24 06:11:10;;;;;;;455.77;424.92;;;16.50;82.60;;;;;;4975336;28;20104;-90
2023/07/24 06:13:36;;;;;;;471.98;440.10;;;16.50;82.70;;;;;;4989900;28;20050;-89
2023/07/24 06:16:07;;;;;;;386.80;359.02;;;16.50;82.80;;;;;;4978043;28;20046;-89
2023/07/24 06:18:33;;;;;;;435.90;406.10;;;16.50;82.70;;;;;;4955180;28;20189;-89
2023/07/24 06:21:01;;;;;;;423.27;396.02;;;16.50;82.80;;;;;;4957600;28;20136;-89
2023/07/24 06:23:27;;;;;;;368.10;341.02;;;16.60;82.80;;;;;;4965021;28;20535;-90
2023/07/24 06:25:55;;;;;;;488.67;454.90;;;16.60;82.80;;;;;;4957857;28;20050;-91
2023/07/24 06:28:24;;;;;;;377.67;350.45;;;16.60;82.80;;;;;;4953979;28;20050;-90
2023/07/24 06:30:54;;;;;;;371.02;343.15;;;16.60;82.70;;;;;;4953123;28;20469;-91
2023/07/24 06:33:22;;;;;;;360.13;334.35;;;16.70;82.70;;;;;;4969404;28;20072;-88
2023/07/24 06:35:50;;;;;;;472.00;440.20;;;16.70;82.70;;;;;;4976907;28;20100;-90
2023/07/24 06:38:15;;;;;;;477.52;445.08;;;16.70;82.60;;;;;;4949846;28;20043;-89
2023/07/24 06:40:44;;;;;;;452.42;422.00;;;16.80;82.60;;;;;;4973363;28;20045;-89
2023/07/24 06:43:12;;;;;;;467.95;435.30;;;16.80;82.70;;;;;;4983294;28;20057;-89
2023/07/24 06:45:40;;;;;;;467.25;434.83;;;16.90;82.60;;;;;;4953204;28;20043;-88
2023/07/24 06:48:08;;;;;;;454.67;423.48;;;16.90;82.60;;;;;;4958128;28;20133;-89
2023/07/24 06:50:34;;;;;;;470.35;438.10;;;16.90;82.50;;;;;;4955734;28;20397;-90
2023/07/24 06:53:00;;;;;;;497.85;462.25;;;17.00;82.50;;;;;;4986161;28;20062;-89
2023/07/24 06:55:26;;;;;;;466.13;433.58;;;17.00;82.30;;;;;;4973141;28;20140;-88
2023/07/24 06:57:51;;;;;;;491.85;457.38;;;17.00;82.40;;;;;;4941948;28;20464;-88
2023/07/24 07:00:17;;;;;;;469.33;436.98;;;17.00;82.20;;;;;;4957595;28;20129;-89
2023/07/24 07:02:44;;;;;;;496.90;462.60;;;17.10;82.20;;;;;;4956766;28;20416;-89
2023/07/24 07:05:10;;;;;;;445.13;414.15;;;17.10;82.30;;;;;;4989263;28;20046;-89
2023/07/24 07:07:39;;;;;;;460.80;428.60;;;17.20;82.20;;;;;;4966805;28;20563;-89
2023/07/24 07:10:06;;;;;;;453.15;417.00;;;17.20;82.10;;;;;;4973436;28;20042;-89
2023/07/24 07:12:34;;;;;;;496.00;460.90;;;17.20;82.00;;;;;;4987711;28;20079;-88
2023/07/24 07:15:03;;;;;;;460.13;423.42;;;17.20;81.90;;;;;;4976624;28;20137;-89
2023/07/24 07:17:29;;;;;;;403.55;373.25;;;17.30;81.60;;;;;;4955319;28;20056;-89
2023/07/24 07:19:58;;;;;;;436.60;402.25;;;17.40;81.60;;;;;;4911351;28;20058;-89
2023/07/24 07:22:26;;;;;;;559.83;517.60;;;17.40;81.70;;;;;;4926492;28;21109;-89
2023/07/24 07:24:55;;;;;;;535.70;496.90;;;17.40;81.50;;;;;;4909603;28;20188;-89
2023/07/24 07:27:21;;;;;;;462.83;425.58;;;17.50;81.40;;;;;;4936879;28;20061;-87
2023/07/24 07:29:49;;;;;;;480.73;441.08;;;17.50;81.30;;;;;;4934362;28;20050;-89
2023/07/24 07:32:18;;;;;;;483.70;444.95;;;17.50;81.20;;;;;;4927176;28;21376;-89
2023/07/24 07:34:46;;;;;;;471.70;433.35;;;17.50;81.20;;;;;;4955440;28;20050;-87
2023/07/24 07:37:13;;;;;;;582.22;538.88;;;17.50;81.00;;;;;;4931622;28;20147;-87
2023/07/24 07:39:43;;;;;;;517.75;475.10;;;17.60;80.90;;;;;;4903679;28;20054;-89
2023/07/24 07:42:09;;;;;;;498.63;459.83;;;17.60;81.00;;;;;;4918797;28;20076;-88
2023/07/24 07:44:38;;;;;;;458.10;422.75;;;17.70;81.00;;;;;;4956570;28;20290;-89
2023/07/24 07:47:06;;;;;;;604.80;558.40;;;17.80;80.90;;;;;;4930002;28;20045;-87
2023/07/24 07:49:32;;;;;;;636.65;589.03;;;17.80;80.80;;;;;;4955059;28;20062;-90
2023/07/24 07:52:01;;;;;;;477.13;438.80;;;17.90;80.70;;;;;;4937358;28;20050;-87
2023/07/24 07:54:29;;;;;;;502.38;462.38;;;18.00;80.70;;;;;;4953189;28;20042;-88
2023/07/24 07:56:57;;;;;;;523.60;482.58;;;18.00;80.40;;;;;;4934617;28;20054;-87
2023/07/24 07:59:25;;;;;;;511.63;471.33;;;18.10;79.90;;;;;;4920774;28;20066;-88
2023/07/24 08:01:52;;;;;;;547.95;503.27;;;18.10;79.70;;;;;;4938304;28;20050;-88
2023/07/24 08:04:20;;;;;;;500.17;461.00;;;18.10;79.70;;;;;;4939956;28;20070;-89
2023/07/24 08:06:48;;;;;;;687.00;631.88;;;18.20;79.70;;;;;;4936344;28;20042;-89
2023/07/24 08:09:17;;;;;;;497.95;459.13;;;18.20;79.60;;;;;;4905787;28;20054;-88
2023/07/24 08:11:43;;;;;;;506.83;467.85;;;18.20;79.40;;;;;;4938225;28;20050;-88
2023/07/24 08:14:11;;;;;;;528.22;486.95;;;18.30;79.50;;;;;;4927319;28;20472;-88
2023/07/24 08:16:39;;;;;;;537.53;493.95;;;18.30;79.60;;;;;;4936391;28;20053;-89
2023/07/24 08:19:05;;;;;;;492.10;453.77;;;18.40;79.50;;;;;;4964052;28;20855;-88
2023/07/24 08:21:31;;;;;;;524.33;484.33;;;18.50;79.30;;;;;;4971372;28;20053;-89
2023/07/24 08:23:57;;;;;;;744.88;684.28;;;18.50;78.90;;;;;;4948817;28;20057;-88
2023/07/24 08:26:26;;;;;;;535.13;493.35;;;18.50;79.00;;;;;;4957721;28;20050;-91
2023/07/24 08:28:53;;;;;;;561.17;516.60;;;18.60;79.00;;;;;;4936094;28;20065;-90
2023/07/24 08:31:19;;;;;;;528.13;487.38;;;18.60;78.70;;;;;;4955990;28;20053;-90
2023/07/24 08:33:45;;;;;;;540.05;498.00;;;18.60;78.50;;;;;;4972123;28;20045;-90
2023/07/24 08:36:14;;;;;;;749.60;684.80;;;18.70;78.30;;;;;;4957100;28;20054;-91
2023/07/24 08:38:40;;;;;;;531.10;491.00;;;18.70;77.90;;;;;;4953383;28;21142;-87
2023/07/24 08:41:10;;;;;;;524.65;484.63;;;18.70;78.10;;;;;;4958397;28;20104;-89
2023/07/24 08:43:38;;;;;;;527.38;486.63;;;18.80;78.10;;;;;;4955261;28;20050;-86
2023/07/24 08:46:05;;;;;;;528.35;488.48;;;18.80;78.10;;;;;;4961257;28;20054;-87
2023/07/24 08:48:35;;;;;;;542.83;501.27;;;18.80;77.70;;;;;;4940217;28;20962;-87
2023/07/24 08:51:12;;;;;;;469.15;434.58;;;18.80;77.50;;;;;;4968927;28;20440;-88
2023/07/24 08:53:40;;;;;;;507.80;469.75;;;18.80;77.20;;;;;;4951562;28;20054;-88
2023/07/24 08:56:08;;;;;;;784.88;718.50;;;18.90;77.60;;;;;;4955439;28;20054;-87
2023/07/24 08:58:34;;;;;;;547.00;505.88;;;18.90;77.50;;;;;;4947749;28;21446;-88
2023/07/24 09:01:02;;;;;;;522.42;482.52;;;19.00;77.60;;;;;;4969337;28;20057;-88
2023/07/24 09:03:28;;;;;;;549.78;509.13;;;19.00;77.20;;;;;;4973341;28;20046;-89
2023/07/24 09:05:54;;;;;;;547.47;505.70;;;19.00;77.00;;;;;;4939554;28;20054;-89
2023/07/24 09:08:36;;;;;;;554.97;512.90;;;19.00;76.80;;;;;;4946873;28;20125;-88
2023/07/24 09:11:06;;;;;;;517.97;479.75;;;19.00;77.00;;;;;;4954057;28;21374;-89
2023/07/24 09:13:35;;;;;;;515.85;477.35;;;19.00;77.10;;;;;;4960328;28;20136;-89
2023/07/24 09:16:01;;;;;;;551.42;509.45;;;19.00;76.80;;;;;;4937577;28;20046;-88
2023/07/24 09:18:38;;;;;;;558.15;515.40;;;19.10;77.20;;;;;;4963631;28;20065;-89
2023/07/24 09:21:06;;;;;;;557.80;515.00;;;19.10;77.00;;;;;;4952378;28;20046;-90
2023/07/24 09:23:32;;;;;;;544.00;503.15;;;19.20;77.20;;;;;;4970836;28;20057;-88
2023/07/24 09:25:58;;;;;;;527.70;488.05;;;19.30;77.10;;;;;;4955421;28;20128;-88
2023/07/24 09:28:24;;;;;;;600.03;553.50;;;19.40;76.70;;;;;;4930074;28;20082;-88
2023/07/24 09:30:58;;;;;;;552.72;510.88;;;19.50;76.70;;;;;;4952235;28;20041;-89
2023/07/24 09:33:40;;;;;;;526.33;486.95;;;19.50;76.50;;;;;;4951296;28;20054;-89
2023/07/24 09:36:10;;;;;;;520.40;481.98;;;19.70;76.20;;;;;;4953302;28;20054;-90
2023/07/24 09:38:37;;;;;;;549.45;508.20;;;19.80;75.70;;;;;;4950645;28;20138;-91
2023/07/24 09:41:05;;;;;;;523.10;484.33;;;20.00;75.80;;;;;;4953191;28;20050;-89
2023/07/24 09:43:31;;;;;;;483.42;447.95;;;20.00;75.10;;;;;;4968697;28;20192;-93
2023/07/24 09:45:57;;;;;;;504.88;467.25;;;20.00;74.00;;;;;;4953288;28;20059;-89
2023/07/24 09:48:35;;;;;;;476.40;439.90;;;20.10;73.90;;;;;;4948324;28;20068;-90
2023/07/24 09:51:04;;;;;;;499.13;461.27;;;20.10;73.60;;;;;;4952303;28;20168;-90
2023/07/24 09:53:38;;;;;;;463.83;429.58;;;20.10;73.90;;;;;;4943830;28;20058;-90
2023/07/24 09:56:06;;;;;;;518.22;478.98;;;20.20;73.30;;;;;;4952274;28;20125;-88
2023/07/24 09:58:55;;;;;;;519.08;479.63;;;20.30;73.60;;;;;;4949288;28;20073;-94
2023/07/24 10:01:21;;;;;;;523.75;483.58;;;20.40;73.50;;;;;;4955120;28;20058;-89
2023/07/24 10:03:48;;;;;;;537.55;495.20;;;20.50;73.70;;;;;;4938939;28;20501;-91
2023/07/24 10:06:18;;;;;;;509.58;469.10;;;20.60;73.70;;;;;;4955266;28;20483;-91
2023/07/24 10:08:44;;;;;;;512.50;472.58;;;20.60;72.80;;;;;;4950959;28;20437;-91
2023/07/24 10:11:12;;;;;;;502.75;465.25;;;20.50;72.70;;;;;;4953599;28;20141;-90
2023/07/24 10:13:39;;;;;;;553.95;509.58;;;20.50;72.60;;;;;;4926483;28;20054;-91
2023/07/24 10:16:06;;;;;;;549.05;506.45;;;20.40;72.70;;;;;;4935829;28;20478;-91
2023/07/24 10:18:54;;;;;;;510.63;470.95;;;20.10;73.30;;;;;;4938494;28;20151;-92
2023/07/24 10:21:27;;;;;;;519.58;479.20;;;19.80;74.00;;;;;;4970723;28;20200;-91
2023/07/24 10:23:59;;;;;;;545.17;501.58;;;19.50;74.40;;;;;;4943733;28;20204;-90
2023/07/24 10:26:26;;;;;;;580.60;533.28;;;19.30;75.30;;;;;;4951870;28;20774;-89
2023/07/24 10:28:52;;;;;;;546.92;504.42;;;19.10;75.50;;;;;;4952829;28;20161;-89
2023/07/24 10:31:31;;;;;;;548.50;506.85;;;18.90;75.70;;;;;;4973024;28;20058;-88
2023/07/24 10:34:07;;;;;;;569.78;523.60;;;18.80;75.80;;;;;;4970223;28;20047;-88
2023/07/24 10:36:38;;;;;;;531.00;489.38;;;18.80;75.00;;;;;;4954108;28;20045;-90
2023/07/24 10:39:18;;;;;;;669.15;606.08;;;18.80;75.20;;;;;;4939568;28;20067;-90
2023/07/24 10:41:46;;;;;;;489.97;454.20;;;18.80;75.50;;;;;;4952982;28;20065;-89
2023/07/24 10:44:12;;;;;;;500.58;463.08;;;18.80;75.90;;;;;;4963008;28;20315;-89
2023/07/24 10:46:44;;;;;;;627.88;577.55;;;18.80;76.20;;;;;;4949902;28;20030;-88
2023/07/24 10:49:11;;;;;;;596.22;548.95;;;18.80;77.50;;;;;;4951000;28;20570;-89
2023/07/24 10:51:37;;;;;;;589.97;542.38;;;18.70;77.70;;;;;;4953240;28;20732;-88
2023/07/24 10:54:04;;;;;;;587.78;540.28;;;18.60;78.10;;;;;;4947470;28;20050;-88
2023/07/24 10:56:30;;;;;;;587.95;540.28;;;18.40;78.30;;;;;;4941132;28;20196;-88
2023/07/24 10:59:03;;;;;;;553.08;508.67;;;18.30;78.70;;;;;;4959802;28;20147;-88
2023/07/24 11:01:30;;;;;;;511.35;470.52;;;18.20;79.10;;;;;;4946123;28;20142;-87
2023/07/24 11:03:56;;;;;;;548.63;504.27;;;18.10;79.30;;;;;;4943810;28;20054;-89
2023/07/24 11:06:22;;;;;;;558.95;514.00;;;18.00;79.70;;;;;;4959373;28;20244;-89
2023/07/24 11:08:56;;;;;;;556.60;510.92;;;18.00;80.00;;;;;;4933301;28;20061;-91
2023/07/24 11:11:27;;;;;;;546.22;501.58;;;18.00;80.30;;;;;;4944337;28;20066;-89
2023/07/24 11:13:53;;;;;;;542.90;499.05;;;18.00;80.50;;;;;;4946303;28;20412;-88
2023/07/24 11:16:19;;;;;;;572.10;522.20;;;18.00;80.70;;;;;;4929944;28;20065;-90
2023/07/24 11:18:53;;;;;;;688.35;633.35;;;18.10;80.90;;;;;;4936836;28;20088;-90
2023/07/24 11:21:19;;;;;;;641.53;584.22;;;18.20;81.40;;;;;;4950540;28;20042;-89
2023/07/24 11:23:50;;;;;;;615.65;560.03;;;18.30;80.90;;;;;;4946630;28;20153;-87
2023/07/24 11:26:21;;;;;;;687.03;628.88;;;18.50;80.50;;;;;;4950373;28;20141;-88
2023/07/24 11:28:48;;;;;;;;;;;18.50;80.20;;;;;;4961774;28;20051;-89
2023/07/24 11:31:19;;;;;;;544.20;499.15;;;18.60;80.70;;;;;;4949948;28;19940;-91
2023/07/24 11:33:45;;;;;;;;;;;18.70;80.40;;;;;;4948381;28;20050;-87
2023/07/24 11:36:11;;;;;;;422.80;391.55;;;18.80;80.60;;;;;;4951509;28;19984;-89
2023/07/24 11:38:38;;;;;;;524.95;483.77;;;18.80;79.60;;;;;;4946879;28;20054;-88
2023/07/24 11:41:04;;;;;;;524.70;484.17;;;18.90;79.50;;;;;;4951091;28;20894;-88
2023/07/24 11:43:30;;;;;;;564.08;519.58;;;19.00;79.30;;;;;;4941123;28;20960;-89
2023/07/24 11:45:59;;;;;;;723.60;665.28;;;19.00;78.80;;;;;;4950061;28;20050;-87
2023/07/24 11:48:29;;;;;;;761.33;697.13;;;19.00;78.90;;;;;;4929481;28;20054;-89
2023/07/24 11:50:56;;;;;;;805.80;732.38;;;19.10;78.40;;;;;;4949605;28;21177;-87
2023/07/24 11:53:30;;;;;;;525.25;485.17;;;19.10;77.80;;;;;;4942333;28;20093;-88
2023/07/24 11:55:58;;;;;;;773.85;711.78;;;19.10;77.70;;;;;;4938357;28;20053;-88
2023/07/24 11:58:30;;;;;;;799.05;731.72;;;19.10;77.20;;;;;;4946568;28;21544;-90
2023/07/24 12:00:56;;;;;;;519.08;480.48;;;19.00;76.50;;;;;;4949639;28;20046;-88
2023/07/24 12:03:27;;;;;;;527.97;489.45;;;18.90;77.10;;;;;;4937260;28;20077;-89
2023/07/24 12:05:53;;;;;;;528.80;488.92;;;18.90;77.40;;;;;;4945984;28;20065;-89
2023/07/24 12:08:23;;;;;;;532.17;492.33;;;18.90;77.70;;;;;;4938232;28;20077;-88
2023/07/24 12:11:00;;;;;;;550.75;509.90;;;18.90;77.70;;;;;;4951307;28;20112;-87
2023/07/24 12:13:27;;;;;;;529.97;490.60;;;18.80;77.20;;;;;;4942828;28;20050;-89